DWI2101 MDSD-KMIA
Flight info
| Callsign | DWI2101 |
|---|---|
| Flight time | 2h 2m |
| Altitude | 34000 |
| Route | MALVN4L MALVN Y261 MADIZ VIICE2 |
| Aircraft | B38M/M-SDE1FGHILORVWXY/HB1 |
Departure
| Time | 2026-05-04 14:34 |
|---|---|
| Airport | Las Américas International Airport (MDSD) |
Arrival
| Time | 2026-05-04 16:37 |
|---|---|
| Airport | Miami International Airport (KMIA) |
| Time | Latitude | Longitude | Altitude | Speed | Heading |
|---|---|---|---|---|---|
| 2026-05-04 14:07 | 18.42863 | -69.67448 | 70 ft | 0 kts | 310° |
| 2026-05-04 14:20 | 18.42856 | -69.67440 | 70 ft | 4 kts | 310° |
| 2026-05-04 14:20 | 18.42839 | -69.67418 | 62 ft | 4 kts | 310° |
| 2026-05-04 14:20 | 18.42821 | -69.67400 | 62 ft | 4 kts | 345° |
| 2026-05-04 14:21 | 18.42801 | -69.67427 | 66 ft | 4 kts | 69° |
| 2026-05-04 14:21 | 18.42799 | -69.67432 | 65 ft | 1 kts | 69° |
| 2026-05-04 14:25 | 18.42818 | -69.67381 | 64 ft | 9 kts | 63° |
| 2026-05-04 14:25 | 18.42820 | -69.67378 | 65 ft | 9 kts | 56° |
| 2026-05-04 14:27 | 18.42838 | -69.67352 | 69 ft | 7 kts | 52° |
| 2026-05-04 14:28 | 18.42871 | -69.67338 | 66 ft | 9 kts | 2° |
| 2026-05-04 14:28 | 18.42946 | -69.67336 | 61 ft | 9 kts | 12° |
| 2026-05-04 14:28 | 18.42979 | -69.67293 | 60 ft | 5 kts | 91° |
| 2026-05-04 14:28 | 18.42975 | -69.67277 | 61 ft | 2 kts | 105° |
| 2026-05-04 14:29 | 18.42954 | -69.67183 | 64 ft | 11 kts | 100° |
| 2026-05-04 14:29 | 18.42913 | -69.67065 | 64 ft | 6 kts | 161° |
| 2026-05-04 14:30 | 18.42858 | -69.67048 | 73 ft | 12 kts | 163° |
| 2026-05-04 14:30 | 18.42754 | -69.67011 | 69 ft | 21 kts | 159° |
| 2026-05-04 14:30 | 18.42388 | -69.66878 | 69 ft | 24 kts | 160° |
| 2026-05-04 14:31 | 18.42253 | -69.66826 | 68 ft | 20 kts | 160° |
| 2026-05-04 14:31 | 18.41968 | -69.66724 | 66 ft | 22 kts | 161° |
| 2026-05-04 14:32 | 18.41700 | -69.66612 | 68 ft | 15 kts | 133° |
| 2026-05-04 14:32 | 18.41687 | -69.66596 | 72 ft | 15 kts | 130° |
| 2026-05-04 14:32 | 18.41623 | -69.66565 | 73 ft | 7 kts | 210° |
| 2026-05-04 14:32 | 18.41616 | -69.66578 | 62 ft | 1 kts | 277° |
| 2026-05-04 14:33 | 18.41619 | -69.66585 | 70 ft | 1 kts | 298° |
| 2026-05-04 14:33 | 18.41644 | -69.66601 | 73 ft | 17 kts | 338° |
| 2026-05-04 14:33 | 18.42010 | -69.66736 | 66 ft | 96 kts | 340° |
| 2026-05-04 14:33 | 18.42872 | -69.67054 | 68 ft | 163 kts | 341° |
| 2026-05-04 14:34 | 18.44034 | -69.67493 | 545 ft | 179 kts | 345° |
| 2026-05-04 14:34 | 18.45247 | -69.67903 | 1178 ft | 192 kts | 347° |
| 2026-05-04 14:34 | 18.46574 | -69.68381 | 1841 ft | 213 kts | 342° |
| 2026-05-04 14:34 | 18.48048 | -69.68952 | 2332 ft | 241 kts | 342° |
| 2026-05-04 14:35 | 18.49723 | -69.69564 | 2858 ft | 266 kts | 342° |
| 2026-05-04 14:35 | 18.51526 | -69.70229 | 3586 ft | 281 kts | 344° |
| 2026-05-04 14:35 | 18.53386 | -69.70853 | 4654 ft | 279 kts | 344° |
| 2026-05-04 14:35 | 18.55237 | -69.71486 | 5719 ft | 281 kts | 343° |
| 2026-05-04 14:36 | 18.57122 | -69.72141 | 6578 ft | 288 kts | 343° |
| 2026-05-04 14:36 | 18.59041 | -69.72822 | 7430 ft | 293 kts | 340° |
| 2026-05-04 14:36 | 18.60795 | -69.73947 | 8273 ft | 298 kts | 316° |
| 2026-05-04 14:36 | 18.62242 | -69.75487 | 9100 ft | 303 kts | 314° |
| 2026-05-04 14:37 | 18.63738 | -69.77066 | 9955 ft | 306 kts | 313° |
| 2026-05-04 14:37 | 18.65253 | -69.78682 | 10617 ft | 315 kts | 313° |
| 2026-05-04 14:37 | 18.66306 | -69.79809 | 10920 ft | 326 kts | 313° |
| 2026-05-04 14:37 | 18.68481 | -69.82144 | 11501 ft | 345 kts | 313° |
| 2026-05-04 14:38 | 18.70181 | -69.83971 | 12133 ft | 349 kts | 312° |
| 2026-05-04 14:38 | 18.71878 | -69.85797 | 12975 ft | 349 kts | 313° |
| 2026-05-04 14:38 | 18.73586 | -69.87636 | 13681 ft | 352 kts | 313° |
| 2026-05-04 14:38 | 18.75305 | -69.89486 | 14358 ft | 353 kts | 313° |
| 2026-05-04 14:39 | 18.77022 | -69.91337 | 15013 ft | 354 kts | 313° |
| 2026-05-04 14:39 | 18.78749 | -69.93198 | 15618 ft | 356 kts | 312° |
| 2026-05-04 14:39 | 18.80488 | -69.95072 | 16228 ft | 357 kts | 312° |
| 2026-05-04 14:40 | 18.83979 | -69.98837 | 17435 ft | 361 kts | 312° |
| 2026-05-04 14:40 | 18.85739 | -70.00737 | 18031 ft | 362 kts | 312° |
| 2026-05-04 14:40 | 18.87497 | -70.02633 | 18558 ft | 363 kts | 312° |
| 2026-05-04 14:40 | 18.89254 | -70.04531 | 18983 ft | 367 kts | 312° |
| 2026-05-04 14:41 | 18.91050 | -70.06469 | 19383 ft | 370 kts | 312° |
| 2026-05-04 14:41 | 18.92865 | -70.08431 | 19787 ft | 374 kts | 312° |
| 2026-05-04 14:41 | 18.96533 | -70.12395 | 20589 ft | 381 kts | 312° |
| 2026-05-04 14:42 | 19.00281 | -70.16450 | 21394 ft | 388 kts | 312° |
| 2026-05-04 14:42 | 19.02176 | -70.18501 | 21815 ft | 391 kts | 312° |
| 2026-05-04 14:42 | 19.04087 | -70.20569 | 22200 ft | 395 kts | 312° |
| 2026-05-04 14:43 | 19.05989 | -70.22629 | 22577 ft | 399 kts | 312° |
| 2026-05-04 14:43 | 19.07937 | -70.24739 | 22971 ft | 402 kts | 312° |
| 2026-05-04 14:43 | 19.09895 | -70.26860 | 23330 ft | 406 kts | 312° |
| 2026-05-04 14:43 | 19.11873 | -70.29005 | 23697 ft | 409 kts | 313° |
| 2026-05-04 14:44 | 19.13874 | -70.31175 | 24042 ft | 412 kts | 312° |
| 2026-05-04 14:44 | 19.15875 | -70.33347 | 24422 ft | 413 kts | 312° |
| 2026-05-04 14:44 | 19.17207 | -70.34792 | 24668 ft | 414 kts | 312° |
| 2026-05-04 14:44 | 19.19899 | -70.37715 | 25180 ft | 415 kts | 312° |
| 2026-05-04 14:45 | 19.21237 | -70.39168 | 25424 ft | 416 kts | 312° |
| 2026-05-04 14:45 | 19.23944 | -70.42108 | 25891 ft | 418 kts | 312° |
| 2026-05-04 14:45 | 19.25981 | -70.44323 | 26250 ft | 420 kts | 312° |
| 2026-05-04 14:45 | 19.28024 | -70.46544 | 26604 ft | 421 kts | 312° |
| 2026-05-04 14:46 | 19.29375 | -70.48013 | 26823 ft | 423 kts | 312° |
| 2026-05-04 14:46 | 19.32104 | -70.50983 | 27280 ft | 425 kts | 312° |
| 2026-05-04 14:46 | 19.33493 | -70.52494 | 27516 ft | 426 kts | 312° |
| 2026-05-04 14:46 | 19.36237 | -70.55483 | 27957 ft | 428 kts | 312° |
| 2026-05-04 14:47 | 19.38317 | -70.57748 | 28293 ft | 429 kts | 312° |
| 2026-05-04 14:47 | 19.39698 | -70.59253 | 28519 ft | 430 kts | 312° |
| 2026-05-04 14:47 | 19.41957 | -70.61348 | 28821 ft | 434 kts | 322° |
| 2026-05-04 14:47 | 19.44414 | -70.63223 | 29145 ft | 435 kts | 321° |
| 2026-05-04 14:48 | 19.46864 | -70.65134 | 29418 ft | 438 kts | 321° |
| 2026-05-04 14:48 | 19.49322 | -70.67044 | 29738 ft | 439 kts | 321° |
| 2026-05-04 14:48 | 19.51786 | -70.68959 | 30069 ft | 441 kts | 321° |
| 2026-05-04 14:48 | 19.54274 | -70.70892 | 30326 ft | 443 kts | 321° |
| 2026-05-04 14:49 | 19.56767 | -70.72829 | 30573 ft | 444 kts | 321° |
| 2026-05-04 14:49 | 19.59268 | -70.74772 | 30810 ft | 446 kts | 321° |
| 2026-05-04 14:49 | 19.61773 | -70.76722 | 31009 ft | 448 kts | 321° |
| 2026-05-04 14:49 | 19.64295 | -70.78684 | 31221 ft | 450 kts | 321° |
| 2026-05-04 14:50 | 19.66799 | -70.80632 | 31468 ft | 452 kts | 321° |
| 2026-05-04 14:50 | 19.69340 | -70.82611 | 31692 ft | 453 kts | 321° |
| 2026-05-04 14:50 | 19.71898 | -70.84604 | 31903 ft | 455 kts | 321° |
| 2026-05-04 14:50 | 19.74455 | -70.86596 | 32120 ft | 457 kts | 321° |
| 2026-05-04 14:51 | 19.77019 | -70.88595 | 32363 ft | 458 kts | 321° |
| 2026-05-04 14:51 | 19.79600 | -70.90608 | 32668 ft | 458 kts | 321° |
| 2026-05-04 14:51 | 19.82161 | -70.92606 | 32984 ft | 457 kts | 321° |
| 2026-05-04 14:51 | 19.84691 | -70.94581 | 33295 ft | 456 kts | 321° |
| 2026-05-04 14:52 | 19.87251 | -70.96580 | 33611 ft | 456 kts | 321° |
| 2026-05-04 14:52 | 19.89806 | -70.98576 | 33906 ft | 455 kts | 321° |
| 2026-05-04 14:52 | 19.92362 | -71.00574 | 34171 ft | 455 kts | 321° |
| 2026-05-04 14:52 | 19.94906 | -71.02563 | 34455 ft | 454 kts | 321° |
| 2026-05-04 14:53 | 19.97453 | -71.04555 | 34756 ft | 452 kts | 321° |
| 2026-05-04 14:53 | 19.99980 | -71.06533 | 35070 ft | 450 kts | 321° |
| 2026-05-04 14:53 | 20.02487 | -71.08495 | 35368 ft | 448 kts | 320° |
| 2026-05-04 14:53 | 20.05002 | -71.10465 | 35674 ft | 446 kts | 320° |
| 2026-05-04 14:54 | 20.07461 | -71.12391 | 35947 ft | 444 kts | 320° |
| 2026-05-04 14:54 | 20.09976 | -71.14362 | 36232 ft | 442 kts | 320° |
| 2026-05-04 14:54 | 20.12414 | -71.16273 | 36511 ft | 440 kts | 320° |
| 2026-05-04 14:54 | 20.14871 | -71.18201 | 36784 ft | 438 kts | 320° |
| 2026-05-04 14:55 | 20.17325 | -71.20127 | 37060 ft | 436 kts | 320° |
| 2026-05-04 14:55 | 20.19766 | -71.22043 | 37305 ft | 435 kts | 320° |
| 2026-05-04 14:55 | 20.22191 | -71.23948 | 37550 ft | 433 kts | 319° |
| 2026-05-04 14:55 | 20.24617 | -71.25853 | 37792 ft | 431 kts | 319° |
| 2026-05-04 14:56 | 20.27031 | -71.27750 | 38004 ft | 430 kts | 319° |
| 2026-05-04 14:56 | 20.29419 | -71.29628 | 38059 ft | 433 kts | 319° |
| 2026-05-04 14:56 | 20.34256 | -71.33433 | 38050 ft | 440 kts | 319° |
| 2026-05-04 14:57 | 20.39214 | -71.37336 | 38044 ft | 446 kts | 319° |
| 2026-05-04 14:57 | 20.41521 | -71.39508 | 38029 ft | 440 kts | 306° |
| 2026-05-04 14:57 | 20.43306 | -71.42133 | 38054 ft | 439 kts | 302° |
| 2026-05-04 14:58 | 20.46814 | -71.47490 | 38047 ft | 441 kts | 301° |
| 2026-05-04 14:58 | 20.50265 | -71.52923 | 38048 ft | 443 kts | 301° |
| 2026-05-04 14:59 | 20.53716 | -71.58405 | 38043 ft | 445 kts | 301° |
| 2026-05-04 15:00 | 20.58887 | -71.66636 | 38046 ft | 446 kts | 301° |
| 2026-05-04 15:00 | 20.62318 | -71.72104 | 38046 ft | 446 kts | 301° |
| 2026-05-04 15:01 | 20.67492 | -71.80361 | 38044 ft | 446 kts | 300° |
| 2026-05-04 15:01 | 20.70941 | -71.85871 | 38049 ft | 446 kts | 300° |
| 2026-05-04 15:02 | 20.74387 | -71.91382 | 38049 ft | 446 kts | 300° |
| 2026-05-04 15:02 | 20.77835 | -71.96900 | 38047 ft | 446 kts | 300° |
| 2026-05-04 15:03 | 20.81278 | -72.02417 | 38050 ft | 446 kts | 300° |
| 2026-05-04 15:03 | 20.84720 | -72.07938 | 38045 ft | 445 kts | 300° |
| 2026-05-04 15:04 | 20.88157 | -72.13456 | 38052 ft | 445 kts | 300° |
| 2026-05-04 15:04 | 20.91584 | -72.18962 | 38056 ft | 445 kts | 300° |
| 2026-05-04 15:05 | 20.95013 | -72.24478 | 38050 ft | 445 kts | 300° |
| 2026-05-04 15:05 | 20.98419 | -72.29962 | 38049 ft | 444 kts | 300° |
| 2026-05-04 15:06 | 21.00098 | -72.32665 | 38059 ft | 426 kts | 300° |
| 2026-05-04 15:06 | 21.01701 | -72.35250 | 38068 ft | 414 kts | 300° |
| 2026-05-04 15:07 | 21.06465 | -72.42937 | 38049 ft | 412 kts | 300° |
| 2026-05-04 15:07 | 21.09630 | -72.48050 | 38048 ft | 412 kts | 300° |
| 2026-05-04 15:08 | 21.12797 | -72.53168 | 38048 ft | 412 kts | 300° |
| 2026-05-04 15:08 | 21.15964 | -72.58293 | 38047 ft | 412 kts | 300° |
| 2026-05-04 15:09 | 21.19119 | -72.63406 | 38050 ft | 411 kts | 300° |
| 2026-05-04 15:09 | 21.22259 | -72.68498 | 38049 ft | 411 kts | 299° |
| 2026-05-04 15:10 | 21.26989 | -72.76177 | 38048 ft | 411 kts | 299° |
| 2026-05-04 15:11 | 21.31714 | -72.83859 | 38051 ft | 411 kts | 299° |
| 2026-05-04 15:11 | 21.34858 | -72.88977 | 38052 ft | 411 kts | 299° |
| 2026-05-04 15:12 | 21.38001 | -72.94097 | 38048 ft | 410 kts | 299° |
| 2026-05-04 15:12 | 21.41118 | -72.99181 | 38050 ft | 410 kts | 299° |
| 2026-05-04 15:13 | 21.44254 | -73.04299 | 38048 ft | 410 kts | 299° |
| 2026-05-04 15:13 | 21.47388 | -73.09419 | 38047 ft | 410 kts | 299° |
| 2026-05-04 15:14 | 21.50522 | -73.14543 | 38052 ft | 410 kts | 299° |
| 2026-05-04 15:14 | 21.53646 | -73.19657 | 38051 ft | 410 kts | 299° |
| 2026-05-04 15:15 | 21.56772 | -73.24778 | 38055 ft | 409 kts | 299° |
| 2026-05-04 15:15 | 21.59890 | -73.29890 | 38055 ft | 409 kts | 299° |
| 2026-05-04 15:16 | 21.64568 | -73.37570 | 38055 ft | 409 kts | 298° |
| 2026-05-04 15:17 | 21.69241 | -73.45253 | 38055 ft | 409 kts | 298° |
| 2026-05-04 15:17 | 21.73890 | -73.52906 | 38057 ft | 408 kts | 298° |
| 2026-05-04 15:18 | 21.76997 | -73.58027 | 38056 ft | 408 kts | 298° |
| 2026-05-04 15:19 | 21.81646 | -73.65698 | 38056 ft | 408 kts | 298° |
| 2026-05-04 15:19 | 21.86290 | -73.73372 | 38056 ft | 407 kts | 298° |
| 2026-05-04 15:20 | 21.89378 | -73.78480 | 38061 ft | 407 kts | 298° |
| 2026-05-04 15:20 | 21.92461 | -73.83587 | 38059 ft | 406 kts | 298° |
| 2026-05-04 15:21 | 21.95543 | -73.88695 | 38057 ft | 406 kts | 298° |
| 2026-05-04 15:22 | 22.00138 | -73.96321 | 38059 ft | 405 kts | 298° |
| 2026-05-04 15:22 | 22.04736 | -74.03963 | 38063 ft | 405 kts | 298° |
| 2026-05-04 15:23 | 22.07798 | -74.09056 | 38059 ft | 404 kts | 298° |
| 2026-05-04 15:23 | 22.10853 | -74.14145 | 38058 ft | 404 kts | 298° |
| 2026-05-04 15:24 | 22.16951 | -74.24315 | 38057 ft | 403 kts | 298° |
| 2026-05-04 15:25 | 22.19976 | -74.29367 | 38060 ft | 403 kts | 298° |
| 2026-05-04 15:26 | 22.24534 | -74.36989 | 38055 ft | 403 kts | 298° |
| 2026-05-04 15:26 | 22.29085 | -74.44609 | 38057 ft | 402 kts | 298° |
| 2026-05-04 15:27 | 22.33632 | -74.52234 | 38057 ft | 402 kts | 297° |
| 2026-05-04 15:28 | 22.38171 | -74.59858 | 38055 ft | 402 kts | 297° |
| 2026-05-04 15:29 | 22.42682 | -74.67444 | 38060 ft | 402 kts | 297° |
| 2026-05-04 15:30 | 22.53242 | -74.85245 | 38061 ft | 401 kts | 297° |
| 2026-05-04 15:31 | 22.57747 | -74.92858 | 38059 ft | 400 kts | 297° |
| 2026-05-04 15:32 | 22.65222 | -75.05515 | 38059 ft | 400 kts | 297° |
| 2026-05-04 15:34 | 22.72695 | -75.18199 | 38057 ft | 399 kts | 297° |
| 2026-05-04 15:34 | 22.76657 | -75.24936 | 38056 ft | 398 kts | 297° |
| 2026-05-04 15:35 | 22.81121 | -75.32537 | 38058 ft | 398 kts | 297° |
| 2026-05-04 15:36 | 22.85581 | -75.40142 | 38049 ft | 397 kts | 297° |
| 2026-05-04 15:36 | 22.88539 | -75.45193 | 38053 ft | 397 kts | 296° |
| 2026-05-04 15:37 | 22.91501 | -75.50256 | 38056 ft | 397 kts | 296° |
| 2026-05-04 15:37 | 22.94439 | -75.55281 | 38055 ft | 397 kts | 296° |
| 2026-05-04 15:38 | 22.97397 | -75.60345 | 38052 ft | 396 kts | 296° |
| 2026-05-04 15:38 | 23.00347 | -75.65402 | 38052 ft | 396 kts | 296° |
| 2026-05-04 15:39 | 23.03297 | -75.70463 | 38050 ft | 396 kts | 296° |
| 2026-05-04 15:40 | 23.07714 | -75.78051 | 38054 ft | 396 kts | 296° |
| 2026-05-04 15:40 | 23.10652 | -75.83104 | 38058 ft | 395 kts | 296° |
| 2026-05-04 15:41 | 23.13569 | -75.88126 | 38054 ft | 395 kts | 296° |
| 2026-05-04 15:41 | 23.16498 | -75.93174 | 38054 ft | 395 kts | 296° |
| 2026-05-04 15:42 | 23.19428 | -75.98228 | 38049 ft | 395 kts | 296° |
| 2026-05-04 15:42 | 23.22355 | -76.03281 | 38051 ft | 395 kts | 296° |
| 2026-05-04 15:43 | 23.25276 | -76.08331 | 38051 ft | 394 kts | 296° |
| 2026-05-04 15:43 | 23.28201 | -76.13391 | 38050 ft | 394 kts | 296° |
| 2026-05-04 15:44 | 23.31119 | -76.18446 | 38052 ft | 394 kts | 296° |
| 2026-05-04 15:44 | 23.34033 | -76.23496 | 38051 ft | 394 kts | 295° |
| 2026-05-04 15:45 | 23.36946 | -76.28551 | 38053 ft | 394 kts | 295° |
| 2026-05-04 15:45 | 23.39853 | -76.33602 | 38050 ft | 394 kts | 295° |
| 2026-05-04 15:46 | 23.42768 | -76.38670 | 38046 ft | 394 kts | 295° |
| 2026-05-04 15:46 | 23.45649 | -76.43684 | 38049 ft | 393 kts | 295° |
| 2026-05-04 15:47 | 23.48553 | -76.48743 | 38049 ft | 393 kts | 295° |
| 2026-05-04 15:47 | 23.51456 | -76.53805 | 38047 ft | 393 kts | 295° |
| 2026-05-04 15:48 | 23.54354 | -76.58865 | 38049 ft | 393 kts | 295° |
| 2026-05-04 15:48 | 23.58672 | -76.66413 | 38049 ft | 393 kts | 295° |
| 2026-05-04 15:49 | 23.61568 | -76.71482 | 38050 ft | 393 kts | 295° |
| 2026-05-04 15:49 | 23.64454 | -76.76538 | 38053 ft | 393 kts | 295° |
| 2026-05-04 15:50 | 23.67343 | -76.81604 | 38047 ft | 393 kts | 295° |
| 2026-05-04 15:50 | 23.70231 | -76.86674 | 38058 ft | 393 kts | 295° |
| 2026-05-04 15:51 | 23.73114 | -76.91739 | 38057 ft | 393 kts | 295° |
| 2026-05-04 15:51 | 23.75994 | -76.96806 | 38047 ft | 393 kts | 295° |
| 2026-05-04 15:52 | 23.78877 | -77.01882 | 38043 ft | 393 kts | 295° |
| 2026-05-04 15:52 | 23.81734 | -77.06917 | 38043 ft | 393 kts | 295° |
| 2026-05-04 15:53 | 23.84617 | -77.12005 | 38046 ft | 393 kts | 295° |
| 2026-05-04 15:53 | 23.87495 | -77.17087 | 38048 ft | 393 kts | 295° |
| 2026-05-04 15:54 | 23.90362 | -77.22157 | 38046 ft | 393 kts | 295° |
| 2026-05-04 15:54 | 23.93245 | -77.27260 | 38048 ft | 393 kts | 295° |
| 2026-05-04 15:55 | 23.96090 | -77.32300 | 38049 ft | 393 kts | 295° |
| 2026-05-04 15:55 | 23.98969 | -77.37403 | 38046 ft | 393 kts | 295° |
| 2026-05-04 15:56 | 24.01833 | -77.42487 | 38046 ft | 393 kts | 295° |
| 2026-05-04 15:56 | 24.04701 | -77.47581 | 38049 ft | 393 kts | 295° |
| 2026-05-04 15:57 | 24.07565 | -77.52674 | 38048 ft | 393 kts | 295° |
| 2026-05-04 15:57 | 24.10428 | -77.57770 | 38054 ft | 393 kts | 295° |
| 2026-05-04 15:58 | 24.13287 | -77.62866 | 38052 ft | 392 kts | 295° |
| 2026-05-04 15:58 | 24.16126 | -77.67930 | 38051 ft | 392 kts | 295° |
| 2026-05-04 15:59 | 24.18978 | -77.73022 | 38045 ft | 391 kts | 294° |
| 2026-05-04 15:59 | 24.21822 | -77.78105 | 38048 ft | 391 kts | 294° |
| 2026-05-04 16:00 | 24.24664 | -77.83191 | 38045 ft | 390 kts | 294° |
| 2026-05-04 16:00 | 24.27571 | -77.88220 | 38052 ft | 392 kts | 297° |
| 2026-05-04 16:01 | 24.30611 | -77.93133 | 38050 ft | 391 kts | 296° |
| 2026-05-04 16:01 | 24.33648 | -77.98075 | 38047 ft | 390 kts | 296° |
| 2026-05-04 16:02 | 24.36680 | -78.03018 | 38047 ft | 390 kts | 296° |
| 2026-05-04 16:03 | 24.41212 | -78.10413 | 38049 ft | 389 kts | 296° |
| 2026-05-04 16:03 | 24.44234 | -78.15351 | 38051 ft | 389 kts | 296° |
| 2026-05-04 16:03 | 24.45739 | -78.17811 | 37927 ft | 389 kts | 296° |
| 2026-05-04 16:04 | 24.47246 | -78.20277 | 38057 ft | 389 kts | 296° |
| 2026-05-04 16:04 | 24.51749 | -78.27652 | 38055 ft | 388 kts | 296° |
| 2026-05-04 16:05 | 24.54761 | -78.32590 | 38051 ft | 389 kts | 296° |
| 2026-05-04 16:06 | 24.59274 | -78.40000 | 38050 ft | 389 kts | 296° |
| 2026-05-04 16:06 | 24.63295 | -78.46611 | 37656 ft | 391 kts | 296° |
| 2026-05-04 16:07 | 24.65324 | -78.49951 | 37352 ft | 395 kts | 296° |
| 2026-05-04 16:07 | 24.69935 | -78.57548 | 36655 ft | 401 kts | 297° |
| 2026-05-04 16:08 | 24.71485 | -78.60105 | 36424 ft | 402 kts | 297° |
| 2026-05-04 16:08 | 24.76118 | -78.67754 | 35773 ft | 401 kts | 297° |
| 2026-05-04 16:09 | 24.79212 | -78.72868 | 35344 ft | 400 kts | 297° |
| 2026-05-04 16:09 | 24.82296 | -78.77965 | 34931 ft | 399 kts | 298° |
| 2026-05-04 16:10 | 24.85368 | -78.83047 | 34517 ft | 398 kts | 298° |
| 2026-05-04 16:11 | 24.89966 | -78.90663 | 33877 ft | 397 kts | 298° |
| 2026-05-04 16:11 | 24.91470 | -78.93158 | 33648 ft | 395 kts | 298° |
| 2026-05-04 16:12 | 24.95984 | -79.00651 | 32108 ft | 392 kts | 299° |
| 2026-05-04 16:12 | 25.00496 | -79.08153 | 30351 ft | 390 kts | 299° |
| 2026-05-04 16:13 | 25.03498 | -79.13150 | 28918 ft | 392 kts | 299° |
| 2026-05-04 16:13 | 25.06493 | -79.18142 | 27774 ft | 387 kts | 300° |
| 2026-05-04 16:14 | 25.09437 | -79.23054 | 26596 ft | 385 kts | 300° |
| 2026-05-04 16:14 | 25.12385 | -79.27978 | 25396 ft | 385 kts | 300° |
| 2026-05-04 16:15 | 25.16822 | -79.35397 | 23540 ft | 387 kts | 300° |
| 2026-05-04 16:16 | 25.19789 | -79.40364 | 22173 ft | 387 kts | 300° |
| 2026-05-04 16:16 | 25.24147 | -79.47671 | 20730 ft | 373 kts | 300° |
| 2026-05-04 16:17 | 25.26966 | -79.52404 | 19857 ft | 364 kts | 300° |
| 2026-05-04 16:18 | 25.31085 | -79.59328 | 18558 ft | 353 kts | 299° |
| 2026-05-04 16:18 | 25.32427 | -79.61586 | 18092 ft | 350 kts | 299° |
| 2026-05-04 16:19 | 25.36367 | -79.68219 | 16740 ft | 340 kts | 299° |
| 2026-05-04 16:19 | 25.38944 | -79.72521 | 15999 ft | 330 kts | 301° |
| 2026-05-04 16:20 | 25.42923 | -79.78715 | 15109 ft | 328 kts | 301° |
| 2026-05-04 16:20 | 25.45542 | -79.82813 | 14564 ft | 325 kts | 301° |
| 2026-05-04 16:21 | 25.48996 | -79.88217 | 13722 ft | 322 kts | 301° |
| 2026-05-04 16:22 | 25.51549 | -79.92202 | 12981 ft | 316 kts | 301° |
| 2026-05-04 16:22 | 25.55279 | -79.98031 | 11909 ft | 303 kts | 302° |
| 2026-05-04 16:23 | 25.58849 | -80.03619 | 10895 ft | 290 kts | 302° |
| 2026-05-04 16:24 | 25.63400 | -80.10750 | 9566 ft | 276 kts | 302° |
| 2026-05-04 16:25 | 25.65540 | -80.14177 | 8983 ft | 263 kts | 296° |
| 2026-05-04 16:26 | 25.68569 | -80.21270 | 8075 ft | 242 kts | 293° |
| 2026-05-04 16:26 | 25.70824 | -80.26629 | 6398 ft | 268 kts | 292° |
| 2026-05-04 16:27 | 25.71123 | -80.30647 | 5661 ft | 262 kts | 266° |
| 2026-05-04 16:28 | 25.70837 | -80.36535 | 4837 ft | 250 kts | 267° |
| 2026-05-04 16:28 | 25.70569 | -80.42134 | 4268 ft | 229 kts | 268° |
| 2026-05-04 16:29 | 25.70085 | -80.48824 | 3288 ft | 217 kts | 266° |
| 2026-05-04 16:30 | 25.69686 | -80.53789 | 3010 ft | 218 kts | 266° |
| 2026-05-04 16:31 | 25.70054 | -80.57005 | 2966 ft | 211 kts | 309° |
| 2026-05-04 16:31 | 25.73980 | -80.57112 | 2985 ft | 222 kts | 46° |
| 2026-05-04 16:32 | 25.76746 | -80.52859 | 3006 ft | 226 kts | 53° |
| 2026-05-04 16:33 | 25.77929 | -80.49669 | 3000 ft | 229 kts | 85° |
| 2026-05-04 16:33 | 25.78000 | -80.46100 | 2587 ft | 231 kts | 86° |
| 2026-05-04 16:34 | 25.78148 | -80.42660 | 2023 ft | 211 kts | 86° |
| 2026-05-04 16:34 | 25.78212 | -80.41108 | 1757 ft | 191 kts | 84° |
| 2026-05-04 16:35 | 25.78383 | -80.37328 | 1125 ft | 154 kts | 82° |
| 2026-05-04 16:35 | 25.78513 | -80.33780 | 580 ft | 150 kts | 85° |
| 2026-05-04 16:36 | 25.78541 | -80.32648 | 350 ft | 147 kts | 82° |
| 2026-05-04 16:36 | 25.78655 | -80.30393 | 27 ft | 137 kts | 83° |
| 2026-05-04 16:37 | 25.78717 | -80.29009 | 19 ft | 45 kts | 87° |
| 2026-05-04 16:37 | 25.78760 | -80.28744 | 22 ft | 28 kts | 55° |
| 2026-05-04 16:37 | 25.78875 | -80.28627 | 18 ft | 9 kts | 38° |
| 2026-05-04 16:38 | 25.78969 | -80.28550 | 20 ft | 0 kts | 32° |
| 2026-05-04 16:39 | 25.78971 | -80.28548 | 20 ft | 0 kts | 32° |
| 2026-05-04 16:40 | 25.79116 | -80.28441 | 19 ft | 7 kts | 33° |
| 2026-05-04 16:40 | 25.79194 | -80.28399 | 21 ft | 4 kts | 17° |
| 2026-05-04 16:41 | 25.79260 | -80.28349 | 22 ft | 8 kts | 42° |
| 2026-05-04 16:41 | 25.79315 | -80.28293 | 22 ft | 11 kts | 43° |
| 2026-05-04 16:42 | 25.79467 | -80.28269 | 24 ft | 2 kts | 338° |
| 2026-05-04 16:43 | 25.79484 | -80.28300 | 22 ft | 5 kts | 287° |
| 2026-05-04 16:43 | 25.79491 | -80.28325 | 25 ft | 0 kts | 286° |